Aérodrome :
LOGIN :

S'inscrire | Disclaimer

   EN    FR    IT 

 










Légende :    VFR   VFR Marginal   IFR   IFR Intensif   IFR Très Intensif
Visi : 
Plafond : 
>= 8 km
>= 3000ft
5 à 8 km
1000 à 3000 ft
1500m à 5 km
500 à 1000 ft
800 à 1500m
200 à 500 ft
< 800m
< 200 ft
Symboles :   Orages  Brouillard  Fortes neiges  Fortes précipitations  Vent > 20 kt
SIGMETs :   Divers  Orages  Givrage  Turbulence  Onde Orograph.  Cendres Volcan.







- Altitude de l'aérodrome : 1090 ft
- Code IATA : CFE
- Voir les cartes d'approche


LFLC - Clermont-Ferrand Auvergne

DERNIER METAR :
  • 152200Z AUTO VRB05KT 9999 -RA SCT032/// SCT046/// BKN062/// ///TCU 06/05 Q1013 TEMPO BKN015 OVC025

METARs EXPIRÉS :
  • 152130Z AUTO 18012KT 150V240 9999 -RA SCT032/// SCT047/// BKN086/// ///TCU 06/04 Q1013 TEMPO BKN015 OVC025
  • 152100Z AUTO VRB06KT 9999 -RA BKN032 BKN050 BKN066 05/03 Q1014 NOSIG
  • 152030Z AUTO 18010KT 150V240 9999 -RA BKN030/// BKN050/// BKN074/// ///TCU 05/03 Q1014 TEMPO BKN015 OVC025
  • 152000Z AUTO VRB02KT 9999 -RA FEW030/// SCT050/// BKN066/// ///TCU 05/03 Q1015 BECMG OVC024
  • 151930Z AUTO VRB02KT 7000 -RA BKN032/// BKN040/// BKN056/// ///TCU 04/03 Q1015 BECMG OVC024

TAF TAF LFLC
Valide du 15 à 21h jusqu'au 16 à 21h UTC


152000Z 1521/1621 14004KT 8000 -RA BKN030 OVC040
TEMPO 1521/1602 5000 -RA BKN015 OVC025
BECMG 1605/1607 32004KT NSW BKN025
BECMG 1607/1609 VRB02KT 9999 SCT030 SCT040
PROB40
TEMPO 1609/1621 -RA OVC030
ATIS : +33 4 73 62 74 38
Pas de NOTAMs connus pour ce terrain.



MET'MAP, la Météo Aéronautique d'un coup d'oeil ! - Copyright ORBIFLY Décembre 2007 - Disclaimer

ORBIFLY MET'MAP TEAM :

Programmation & Développement : Alexandra Zaïnal
Conception & Développement : Baudouin d'Aumeries
Co-Programmation & Développement : Marc-Olivier Méhu
Soutien technique & logistique : Manuel Goepfert

Contact : metmap@orbifly.com




SOURCES & CREDITS :

   NOAA